Time;durP1;ratioP1;P1;durP2;ratioP2;P2;SDS_P1;SDS_P2;PMS_P1;PMS_P2;Temp;Humidity;BMP_temperature;BMP_pressure;BME280_temperature;BME280_humidity;BME280_pressure;Samples;Min_cycle;Max_cycle;Signal;HPM_P1;HPM_P2
2022/01/08 00:01:33;;;;;;;11.20;8.00;;;1.70;63.90;;;;;;5044124;28;20420;-55
2022/01/08 00:03:59;;;;;;;9.52;5.57;;;1.70;63.90;;;;;;5069736;28;20488;-56
2022/01/08 00:06:24;;;;;;;9.52;6.38;;;1.70;63.90;;;;;;5056036;28;20036;-51
2022/01/08 00:08:50;;;;;;;9.48;6.50;;;1.70;64.00;;;;;;5053971;28;20039;-55
2022/01/08 00:11:20;;;;;;;10.05;7.57;;;1.70;64.00;;;;;;5056046;28;20411;-56
2022/01/08 00:13:46;;;;;;;10.65;5.78;;;1.70;64.00;;;;;;5056178;28;20419;-56
2022/01/08 00:16:12;;;;;;;9.32;6.60;;;1.70;63.90;;;;;;5051726;28;20124;-56
2022/01/08 00:18:38;;;;;;;12.02;7.53;;;1.70;64.10;;;;;;5050933;28;20104;-56
2022/01/08 00:21:03;;;;;;;13.13;8.68;;;1.70;64.10;;;;;;5055632;28;20040;-56
2022/01/08 00:23:30;;;;;;;10.65;7.63;;;1.70;64.20;;;;;;5055623;28;20031;-55
2022/01/08 00:25:58;;;;;;;13.48;8.40;;;1.70;64.10;;;;;;5055804;28;20033;-55
2022/01/08 00:28:24;;;;;;;11.75;7.45;;;1.70;64.10;;;;;;5065214;28;20077;-55
2022/01/08 00:30:50;;;;;;;13.57;7.47;;;1.70;64.20;;;;;;5062133;28;20024;-53
2022/01/08 00:33:16;;;;;;;13.77;10.00;;;1.70;64.20;;;;;;5063939;28;20108;-55
2022/01/08 00:35:42;;;;;;;13.65;9.38;;;1.70;64.40;;;;;;5042961;28;20500;-54
2022/01/08 00:38:07;;;;;;;13.75;8.45;;;1.70;64.50;;;;;;5051643;28;21754;-55
2022/01/08 00:40:33;;;;;;;11.60;7.53;;;1.70;64.40;;;;;;5054818;28;20025;-56
2022/01/08 00:42:59;;;;;;;12.88;9.82;;;1.60;64.40;;;;;;5047815;28;20034;-57
2022/01/08 00:45:25;;;;;;;14.63;8.38;;;1.60;64.60;;;;;;5055664;28;20040;-52
2022/01/08 00:47:51;;;;;;;12.43;7.50;;;1.60;64.60;;;;;;5051267;28;20110;-56
2022/01/08 00:50:17;;;;;;;11.98;8.90;;;1.60;64.60;;;;;;5051501;28;20448;-55
2022/01/08 00:52:43;;;;;;;16.60;9.60;;;1.60;64.80;;;;;;5061815;28;20025;-55
2022/01/08 00:55:10;;;;;;;13.00;7.80;;;1.50;64.80;;;;;;5055565;28;20078;-55
2022/01/08 00:57:36;;;;;;;12.50;9.05;;;1.50;64.90;;;;;;5055070;28;20033;-54
2022/01/08 01:00:04;;;;;;;12.25;7.47;;;1.50;64.90;;;;;;5055590;28;20469;-56
2022/01/08 01:02:30;;;;;;;13.57;9.38;;;1.50;64.80;;;;;;5041744;28;20531;-56
2022/01/08 01:04:56;;;;;;;17.80;7.70;;;1.50;65.00;;;;;;5055066;28;20033;-55
2022/01/08 01:07:21;;;;;;;12.70;7.78;;;1.50;64.80;;;;;;5053110;28;20417;-54
2022/01/08 01:09:47;;;;;;;12.77;7.53;;;1.50;64.90;;;;;;5045368;28;20109;-55
2022/01/08 01:12:13;;;;;;;11.50;7.97;;;1.50;64.90;;;;;;5054909;28;20469;-54
2022/01/08 01:14:38;;;;;;;11.98;7.05;;;1.50;64.90;;;;;;5055892;28;20035;-56
2022/01/08 01:17:04;;;;;;;13.27;9.85;;;1.50;65.10;;;;;;5063531;28;20427;-53
2022/01/08 01:19:30;;;;;;;14.23;9.20;;;1.60;65.00;;;;;;5068194;28;20024;-55
2022/01/08 01:21:58;;;;;;;13.15;8.80;;;1.60;64.80;;;;;;5040830;28;20061;-57
2022/01/08 01:24:25;;;;;;;18.20;12.35;;;1.60;64.90;;;;;;5049862;28;20032;-56
2022/01/08 01:27:23;;;;;;;18.83;11.38;;;1.60;64.90;;;;;;5054188;28;20024;-54
2022/01/08 01:48:22;;;;;;;20.33;13.32;;;1.40;64.90;;;;;;5054480;28;20416;-52
2022/01/08 01:50:48;;;;;;;16.65;12.90;;;1.50;64.90;;;;;;5055395;28;20032;-56
2022/01/08 01:53:14;;;;;;;19.38;13.45;;;1.40;64.90;;;;;;5057796;28;20044;-56
2022/01/08 01:55:42;;;;;;;16.67;10.50;;;1.50;65.00;;;;;;5048534;28;20384;-56
2022/01/08 01:58:09;;;;;;;17.40;10.27;;;1.50;65.00;;;;;;5052703;28;20103;-56
2022/01/08 02:00:35;;;;;;;15.05;9.18;;;1.40;64.90;;;;;;5046853;28;20037;-54
2022/01/08 02:03:01;;;;;;;14.73;8.93;;;1.40;65.00;;;;;;5049583;28;20025;-56
2022/01/08 02:05:28;;;;;;;17.75;11.45;;;1.40;65.10;;;;;;5045691;28;20025;-54
2022/01/08 02:07:55;;;;;;;15.75;11.32;;;1.40;65.00;;;;;;5061646;28;20040;-56
2022/01/08 02:10:22;;;;;;;15.98;8.23;;;1.50;65.00;;;;;;5047698;28;20064;-53
2022/01/08 02:12:47;;;;;;;17.60;12.10;;;1.40;64.90;;;;;;5053566;28;20033;-52
2022/01/08 02:15:13;;;;;;;13.93;9.27;;;1.40;65.00;;;;;;5052656;28;20071;-56
2022/01/08 02:17:39;;;;;;;13.73;8.55;;;1.40;64.90;;;;;;5038474;28;20410;-53
2022/01/08 02:20:05;;;;;;;16.58;11.40;;;1.40;65.60;;;;;;5053523;28;20100;-53
2022/01/08 02:22:31;;;;;;;15.43;10.07;;;1.40;65.20;;;;;;5053546;28;20045;-54
2022/01/08 02:24:57;;;;;;;14.90;9.63;;;1.30;65.00;;;;;;5065708;28;20024;-51
2022/01/08 02:27:23;;;;;;;14.27;10.80;;;1.20;65.00;;;;;;5049386;28;20028;-56
2022/01/08 02:29:50;;;;;;;18.38;11.38;;;1.20;65.20;;;;;;5052852;28;20381;-56
2022/01/08 02:32:19;;;;;;;18.23;10.32;;;1.20;65.20;;;;;;5052771;28;20040;-56
2022/01/08 02:34:47;;;;;;;15.88;10.43;;;1.10;65.40;;;;;;5053706;28;20025;-55
2022/01/08 02:37:17;;;;;;;15.35;10.32;;;1.10;65.40;;;;;;5053647;28;20029;-55
2022/01/08 02:39:45;;;;;;;16.60;10.30;;;1.10;65.60;;;;;;5041480;28;20112;-56
2022/01/08 02:42:14;;;;;;;20.05;13.73;;;1.10;65.50;;;;;;5052668;28;20033;-53
2022/01/08 02:44:41;;;;;;;18.75;10.93;;;1.10;65.50;;;;;;5052571;28;20025;-55
2022/01/08 02:47:07;;;;;;;19.95;11.77;;;1.10;65.50;;;;;;5053231;28;20032;-52
2022/01/08 02:49:34;;;;;;;18.40;12.85;;;1.10;65.50;;;;;;5058445;28;20025;-54
2022/01/08 02:52:00;;;;;;;21.38;12.65;;;1.10;65.70;;;;;;5065454;28;20086;-54
2022/01/08 02:54:26;;;;;;;20.50;13.70;;;1.10;65.70;;;;;;5044718;28;20032;-56
2022/01/08 02:56:52;;;;;;;16.63;11.00;;;1.10;65.80;;;;;;5053213;28;20021;-54
2022/01/08 02:59:18;;;;;;;19.55;11.38;;;1.10;65.70;;;;;;5046333;28;20029;-56
2022/01/08 03:01:44;;;;;;;18.00;10.45;;;1.00;65.70;;;;;;5039735;28;20025;-53
2022/01/08 03:04:12;;;;;;;17.52;11.23;;;1.00;65.90;;;;;;5050029;28;20044;-56
2022/01/08 03:06:38;;;;;;;13.77;9.82;;;1.00;66.00;;;;;;5049447;28;20026;-56
2022/01/08 03:09:04;;;;;;;16.13;10.13;;;1.00;66.10;;;;;;5039019;28;20032;-54
2022/01/08 03:11:30;;;;;;;16.85;11.75;;;1.00;66.00;;;;;;5053323;28;20078;-54
2022/01/08 03:13:56;;;;;;;18.63;10.63;;;1.00;66.10;;;;;;5063288;28;20477;-55
2022/01/08 03:16:22;;;;;;;14.57;8.07;;;1.10;66.00;;;;;;5059305;28;20060;-53
2022/01/08 03:18:49;;;;;;;12.52;8.57;;;1.00;66.00;;;;;;5050808;28;20053;-54
2022/01/08 03:21:19;;;;;;;15.73;11.80;;;1.00;66.00;;;;;;5048685;28;20049;-53
2022/01/08 03:23:50;;;;;;;13.80;8.73;;;1.10;66.10;;;;;;5065749;28;20060;-55
2022/01/08 03:26:17;;;;;;;13.18;8.77;;;1.00;66.00;;;;;;5049673;28;20525;-55
2022/01/08 03:28:44;;;;;;;12.52;8.48;;;1.00;66.00;;;;;;5062221;28;20074;-54
2022/01/08 03:31:10;;;;;;;14.43;10.50;;;1.00;66.10;;;;;;5064330;28;20032;-55
2022/01/08 03:33:36;;;;;;;13.75;8.82;;;1.10;66.30;;;;;;5056574;28;20078;-55
2022/01/08 03:36:03;;;;;;;13.00;8.98;;;1.10;66.10;;;;;;5052409;28;20021;-52
2022/01/08 03:38:28;;;;;;;12.25;7.78;;;1.10;66.20;;;;;;5048162;28;20053;-55
2022/01/08 03:40:54;;;;;;;14.90;10.98;;;1.10;66.30;;;;;;5040622;28;20053;-54
2022/01/08 03:43:19;;;;;;;17.65;8.95;;;1.10;66.30;;;;;;5045130;28;20017;-54
2022/01/08 03:45:45;;;;;;;17.65;11.50;;;1.10;66.20;;;;;;5056379;28;20104;-56
2022/01/08 03:50:46;;;;;;;12.35;10.35;;;1.10;66.10;;;;;;5055709;28;20032;-56
2022/01/08 03:53:12;;;;;;;13.30;10.00;;;1.10;66.20;;;;;;5056380;28;20538;-54
2022/01/08 03:55:38;;;;;;;12.73;8.07;;;1.10;66.00;;;;;;5065324;28;20021;-54
2022/01/08 03:58:05;;;;;;;10.27;6.75;;;1.10;65.90;;;;;;5047459;28;20056;-56
2022/01/08 04:00:31;;;;;;;11.57;7.25;;;1.10;66.00;;;;;;5045508;28;20393;-53
2022/01/08 04:02:57;;;;;;;12.35;7.45;;;1.10;66.00;;;;;;5039072;28;20029;-55
2022/01/08 04:05:22;;;;;;;8.60;6.65;;;1.10;66.10;;;;;;5048669;28;20059;-56
2022/01/08 04:07:48;;;;;;;9.55;6.28;;;1.10;66.00;;;;;;5051269;28;20033;-54
2022/01/08 04:10:14;;;;;;;11.40;6.43;;;1.10;66.00;;;;;;5053354;28;20037;-55
2022/01/08 04:12:46;;;;;;;9.07;5.60;;;1.10;65.90;;;;;;5067031;28;20384;-51
2022/01/08 04:17:53;;;;;;;11.20;8.18;;;1.10;65.90;;;;;;5053208;28;20160;-55
2022/01/08 04:20:20;;;;;;;9.00;6.13;;;1.10;65.90;;;;;;5055542;28;20423;-55
2022/01/08 04:22:49;;;;;;;9.48;6.32;;;1.10;65.80;;;;;;5056078;28;20486;-56
2022/01/08 04:25:16;;;;;;;9.00;5.80;;;1.10;65.80;;;;;;5045615;28;20024;-54
2022/01/08 04:27:42;;;;;;;11.98;8.30;;;1.10;65.70;;;;;;5054987;28;20033;-54
2022/01/08 04:30:08;;;;;;;10.23;7.65;;;1.10;65.70;;;;;;5055510;28;20021;-55
2022/01/08 04:32:33;;;;;;;10.63;8.23;;;1.10;65.80;;;;;;5044219;28;20392;-57
2022/01/08 04:34:59;;;;;;;13.32;8.68;;;1.10;65.90;;;;;;5054344;28;20020;-55
2022/01/08 04:37:24;;;;;;;14.10;11.43;;;1.10;65.90;;;;;;5043125;28;20513;-55
2022/01/08 04:39:50;;;;;;;20.92;9.57;;;1.10;65.80;;;;;;5040387;28;20057;-56
2022/01/08 04:42:16;;;;;;;13.75;10.05;;;1.10;65.70;;;;;;5054543;28;20107;-56
2022/01/08 04:44:41;;;;;;;20.73;13.10;;;1.00;65.70;;;;;;5055072;28;20025;-53
2022/01/08 04:47:07;;;;;;;17.38;11.25;;;1.00;65.60;;;;;;5054974;28;20083;-55
2022/01/08 04:49:33;;;;;;;21.63;11.48;;;1.00;65.60;;;;;;5044142;28;20021;-54
2022/01/08 04:51:59;;;;;;;19.60;12.52;;;1.00;65.60;;;;;;5047869;28;20100;-56
2022/01/08 04:54:25;;;;;;;21.45;12.15;;;1.00;65.60;;;;;;5058846;28;20592;-54
2022/01/08 04:56:50;;;;;;;22.75;12.43;;;0.90;65.60;;;;;;5054093;28;20025;-53
2022/01/08 04:59:16;;;;;;;21.23;13.15;;;0.90;65.60;;;;;;5054420;28;20480;-55
2022/01/08 05:01:43;;;;;;;25.27;14.85;;;0.80;65.70;;;;;;5048429;28;20036;-54
2022/01/08 05:04:09;;;;;;;28.13;18.88;;;0.80;65.80;;;;;;5044635;28;20079;-55
2022/01/08 05:06:34;;;;;;;25.52;13.82;;;0.80;65.90;;;;;;5052939;28;20021;-57
2022/01/08 05:09:00;;;;;;;24.15;13.82;;;0.70;65.80;;;;;;5039269;28;20121;-55
2022/01/08 05:11:27;;;;;;;24.85;12.65;;;0.70;65.90;;;;;;5041467;28;20063;-56
2022/01/08 05:13:54;;;;;;;20.10;14.55;;;0.70;66.10;;;;;;5047581;28;20029;-55
2022/01/08 05:16:20;;;;;;;19.67;10.27;;;0.70;66.10;;;;;;5037983;28;20385;-56
2022/01/08 05:18:47;;;;;;;16.58;9.98;;;0.60;66.00;;;;;;5048016;28;20022;-56
2022/01/08 05:21:24;;;;;;;21.17;15.43;;;0.70;66.00;;;;;;5052505;28;20056;-55
2022/01/08 05:23:50;;;;;;;15.98;11.00;;;0.60;66.10;;;;;;5053346;28;20033;-52
2022/01/08 05:26:17;;;;;;;13.25;8.20;;;0.60;66.10;;;;;;5056118;28;20032;-56
2022/01/08 05:28:44;;;;;;;15.13;10.32;;;0.60;66.10;;;;;;5063559;28;20033;-52
2022/01/08 05:31:10;;;;;;;13.77;9.13;;;0.60;66.10;;;;;;5042487;28;20493;-52
2022/01/08 05:33:35;;;;;;;12.90;8.18;;;0.70;66.10;;;;;;5052227;28;20113;-52
2022/01/08 05:36:01;;;;;;;11.85;6.72;;;0.60;66.10;;;;;;5048348;28;20056;-55
2022/01/08 05:38:27;;;;;;;10.70;6.50;;;0.60;66.10;;;;;;5053207;28;20032;-54
2022/01/08 05:40:53;;;;;;;13.88;7.50;;;0.60;66.10;;;;;;5046615;28;20381;-55
2022/01/08 05:43:18;;;;;;;8.98;6.07;;;0.60;66.10;;;;;;5053703;28;20021;-56
2022/01/08 05:45:44;;;;;;;11.48;6.63;;;0.60;66.20;;;;;;5053876;28;20495;-56
2022/01/08 05:48:09;;;;;;;10.38;6.50;;;0.70;66.10;;;;;;5039542;28;20397;-56
2022/01/08 05:50:35;;;;;;;10.27;6.55;;;0.70;66.30;;;;;;5053464;28;20104;-52
2022/01/08 05:53:01;;;;;;;11.32;8.05;;;0.70;66.10;;;;;;5054115;28;20434;-53
2022/01/08 05:55:27;;;;;;;11.13;6.60;;;0.70;66.10;;;;;;5053611;28;20101;-56
2022/01/08 05:57:52;;;;;;;12.90;6.72;;;0.70;66.00;;;;;;5051327;28;20359;-53
2022/01/08 06:00:18;;;;;;;11.30;6.10;;;0.70;66.10;;;;;;5053792;28;20029;-56
2022/01/08 06:02:44;;;;;;;12.75;9.05;;;0.70;66.10;;;;;;5050896;28;20029;-55
2022/01/08 06:05:10;;;;;;;17.63;7.78;;;0.70;66.10;;;;;;5050976;28;20025;-53
2022/01/08 06:07:36;;;;;;;11.93;7.78;;;0.70;65.90;;;;;;5053688;28;20400;-55
2022/01/08 06:10:02;;;;;;;16.02;8.90;;;0.70;66.10;;;;;;5050728;28;20556;-54
2022/01/08 06:12:28;;;;;;;13.07;8.88;;;0.80;66.30;;;;;;5043041;28;20021;-56
2022/01/08 06:14:53;;;;;;;14.90;8.05;;;0.80;66.30;;;;;;5040243;28;20520;-56
2022/01/08 06:17:19;;;;;;;18.17;12.80;;;0.80;66.10;;;;;;5043160;28;20101;-54
2022/01/08 06:19:45;;;;;;;14.95;8.68;;;0.90;66.00;;;;;;5049537;28;20032;-57
2022/01/08 06:22:10;;;;;;;18.08;10.43;;;0.90;65.90;;;;;;5053207;28;20053;-56
2022/01/08 06:24:36;;;;;;;15.65;8.57;;;0.90;65.90;;;;;;5052508;28;20024;-56
2022/01/08 06:27:02;;;;;;;22.63;13.75;;;1.00;65.90;;;;;;5053190;28;20028;-56
2022/01/08 06:29:27;;;;;;;15.68;9.38;;;1.00;65.90;;;;;;5053550;28;20437;-55
2022/01/08 06:31:53;;;;;;;15.02;9.38;;;1.10;65.70;;;;;;5046654;28;20035;-56
2022/01/08 06:34:19;;;;;;;14.90;10.82;;;1.10;65.70;;;;;;5044312;28;20100;-56
2022/01/08 06:36:47;;;;;;;13.57;8.48;;;1.20;65.60;;;;;;5038573;28;20033;-54
2022/01/08 06:39:14;;;;;;;12.52;7.47;;;1.20;65.60;;;;;;5053575;28;20545;-54
2022/01/08 06:41:39;;;;;;;14.50;10.10;;;1.30;65.50;;;;;;5039804;28;20048;-56
2022/01/08 06:44:06;;;;;;;14.20;7.93;;;1.30;65.30;;;;;;5039059;28;20033;-55
2022/01/08 06:46:31;;;;;;;12.65;9.25;;;1.40;65.10;;;;;;5052578;28;20408;-55
2022/01/08 06:48:57;;;;;;;15.93;8.65;;;1.40;64.90;;;;;;5050831;28;20036;-56
2022/01/08 06:51:23;;;;;;;20.52;11.70;;;1.50;64.90;;;;;;5056495;28;20021;-56
2022/01/08 06:53:48;;;;;;;21.00;14.80;;;1.50;64.90;;;;;;5057554;28;20021;-56
2022/01/08 06:56:14;;;;;;;22.52;15.07;;;1.60;64.80;;;;;;5057337;28;20025;-57
2022/01/08 06:58:41;;;;;;;23.00;13.07;;;1.70;64.40;;;;;;5057203;28;20032;-54
2022/01/08 07:01:07;;;;;;;20.35;13.88;;;1.70;64.40;;;;;;5057512;28;20040;-56
2022/01/08 07:03:33;;;;;;;25.08;13.65;;;1.80;64.40;;;;;;5048702;28;20021;-55
2022/01/08 07:05:59;;;;;;;17.27;11.57;;;1.80;64.20;;;;;;5039332;28;20520;-53
2022/01/08 07:08:24;;;;;;;17.50;12.68;;;1.80;64.30;;;;;;5049337;28;20465;-56
2022/01/08 07:10:50;;;;;;;20.52;14.73;;;1.80;64.30;;;;;;5068879;28;20021;-55
2022/01/08 07:13:16;;;;;;;21.15;12.35;;;1.80;64.10;;;;;;5056801;28;20358;-54
2022/01/08 07:15:41;;;;;;;24.10;13.20;;;1.80;64.10;;;;;;5057214;28;20017;-55
2022/01/08 07:18:07;;;;;;;53.60;22.80;;;1.80;64.40;;;;;;5050163;28;20033;-57
2022/01/08 07:20:33;;;;;;;48.88;26.52;;;1.80;64.30;;;;;;5056833;28;20090;-56
2022/01/08 07:22:59;;;;;;;59.47;31.45;;;1.80;64.30;;;;;;5041828;28;20539;-54
2022/01/08 07:25:25;;;;;;;57.28;26.63;;;1.90;64.30;;;;;;5058132;28;20041;-55
2022/01/08 07:27:51;;;;;;;57.85;34.33;;;1.80;64.20;;;;;;5065541;28;20033;-55
2022/01/08 07:30:17;;;;;;;41.75;19.77;;;1.80;64.10;;;;;;5055310;28;20025;-56
2022/01/08 07:32:48;;;;;;;46.97;28.00;;;1.90;64.10;;;;;;5054092;28;20025;-57
2022/01/08 07:35:15;;;;;;;31.27;17.25;;;1.90;64.70;;;;;;5058231;28;20074;-56
2022/01/08 07:37:42;;;;;;;32.60;18.98;;;1.90;64.10;;;;;;5058755;28;20055;-57
2022/01/08 07:40:09;;;;;;;29.48;14.90;;;1.90;64.00;;;;;;5057745;28;20048;-56
2022/01/08 07:42:35;;;;;;;20.35;13.10;;;1.90;63.90;;;;;;5050921;28;20444;-55
2022/01/08 07:45:01;;;;;;;13.40;8.57;;;1.90;63.80;;;;;;5053233;28;20029;-55
2022/01/08 07:47:26;;;;;;;13.52;9.48;;;2.00;63.80;;;;;;5066351;28;20559;-54
2022/01/08 07:49:52;;;;;;;12.88;9.57;;;2.00;63.60;;;;;;5066889;28;20481;-56
2022/01/08 07:52:18;;;;;;;10.95;7.50;;;2.00;63.40;;;;;;5062296;28;20017;-53
2022/01/08 07:54:43;;;;;;;11.43;7.93;;;2.10;63.10;;;;;;5060390;28;20025;-56
2022/01/08 07:57:09;;;;;;;11.50;7.78;;;2.10;63.20;;;;;;5041854;28;20409;-55
2022/01/08 07:59:35;;;;;;;11.10;6.95;;;2.10;63.80;;;;;;5058626;28;20032;-56
2022/01/08 08:02:01;;;;;;;8.52;5.82;;;2.20;63.00;;;;;;5068250;28;20028;-54
2022/01/08 08:04:26;;;;;;;6.22;4.38;;;2.20;63.10;;;;;;5061137;28;20449;-56
2022/01/08 08:06:52;;;;;;;8.38;5.53;;;2.20;62.90;;;;;;5061735;28;20068;-57
2022/01/08 08:09:18;;;;;;;6.70;4.63;;;2.20;62.80;;;;;;5059856;28;20052;-56
2022/01/08 08:11:44;;;;;;;8.65;6.13;;;2.20;63.20;;;;;;5059871;28;20025;-56
2022/01/08 08:14:09;;;;;;;10.52;5.47;;;2.20;63.20;;;;;;5064724;28;20033;-55
2022/01/08 08:16:35;;;;;;;9.32;5.82;;;2.20;63.10;;;;;;5062359;28;20047;-56
2022/01/08 08:19:01;;;;;;;8.68;5.18;;;2.30;63.00;;;;;;5071646;28;20028;-54
2022/01/08 08:21:27;;;;;;;7.70;5.43;;;2.30;62.90;;;;;;5044059;28;20049;-56
2022/01/08 08:23:52;;;;;;;7.72;6.10;;;2.30;62.90;;;;;;5062168;28;20021;-56
2022/01/08 08:26:18;;;;;;;8.13;5.13;;;2.40;62.60;;;;;;5057593;28;20025;-56
2022/01/08 08:28:44;;;;;;;7.13;4.55;;;2.40;62.50;;;;;;5049554;28;20031;-56
2022/01/08 08:31:11;;;;;;;8.13;5.25;;;2.50;62.30;;;;;;5045686;28;20082;-55
2022/01/08 08:33:37;;;;;;;6.53;5.28;;;2.60;61.90;;;;;;5067142;28;20024;-57
2022/01/08 08:36:03;;;;;;;5.57;3.70;;;2.60;61.40;;;;;;5071989;28;20074;-56
2022/01/08 08:38:29;;;;;;;6.53;3.90;;;2.60;61.10;;;;;;5064974;28;20044;-56
2022/01/08 08:40:55;;;;;;;6.35;4.22;;;2.60;60.70;;;;;;5048545;28;20028;-56
2022/01/08 08:43:21;;;;;;;6.50;3.88;;;2.60;60.30;;;;;;5048229;28;20036;-57
2022/01/08 08:45:47;;;;;;;5.43;3.78;;;2.60;60.10;;;;;;5065935;28;20167;-56
2022/01/08 08:48:13;;;;;;;4.88;3.88;;;2.60;60.10;;;;;;5046762;28;20385;-54
2022/01/08 08:50:39;;;;;;;4.45;3.65;;;2.70;60.10;;;;;;5041187;28;20029;-55
2022/01/08 08:53:05;;;;;;;5.82;3.85;;;2.70;59.80;;;;;;5070879;28;20028;-54
2022/01/08 08:55:31;;;;;;;5.78;4.05;;;2.70;59.70;;;;;;5047242;28;20040;-53
2022/01/08 08:57:57;;;;;;;4.15;3.10;;;2.70;59.50;;;;;;5055513;28;20021;-57
2022/01/08 09:00:22;;;;;;;4.28;3.60;;;2.70;59.70;;;;;;5047487;28;20037;-53
2022/01/08 09:02:48;;;;;;;4.72;3.55;;;2.70;59.70;;;;;;5044029;28;20041;-56
2022/01/08 09:05:14;;;;;;;5.95;3.65;;;2.70;59.40;;;;;;5051414;28;20112;-54
2022/01/08 09:07:39;;;;;;;5.40;4.00;;;2.70;59.40;;;;;;5060374;28;20037;-55
2022/01/08 09:10:09;;;;;;;5.25;3.88;;;2.70;59.50;;;;;;5056230;28;20091;-54
2022/01/08 09:12:36;;;;;;;6.78;3.75;;;2.70;59.70;;;;;;5060043;28;20465;-56
2022/01/08 09:15:02;;;;;;;4.90;4.00;;;2.60;59.70;;;;;;5047556;28;20025;-56
2022/01/08 09:17:27;;;;;;;7.82;4.78;;;2.60;59.80;;;;;;5047538;28;20362;-56
2022/01/08 09:19:53;;;;;;;7.18;3.95;;;2.60;59.80;;;;;;5047948;28;20025;-56
2022/01/08 09:22:19;;;;;;;8.35;5.70;;;2.50;60.00;;;;;;5046763;28;20597;-56
2022/01/08 09:24:45;;;;;;;7.97;5.15;;;2.60;60.40;;;;;;5045342;28;20384;-57
2022/01/08 09:27:12;;;;;;;6.68;4.60;;;2.60;60.50;;;;;;5052785;28;20029;-53
2022/01/08 09:29:38;;;;;;;8.63;5.15;;;2.60;60.40;;;;;;5058659;28;20487;-56
2022/01/08 09:32:05;;;;;;;6.80;5.10;;;2.70;60.50;;;;;;5046448;28;20026;-55
2022/01/08 09:34:32;;;;;;;8.20;5.70;;;2.70;60.50;;;;;;5041997;28;20366;-54
2022/01/08 09:36:58;;;;;;;9.18;5.47;;;2.80;60.30;;;;;;5044144;28;20124;-53
2022/01/08 09:39:24;;;;;;;7.85;4.63;;;2.90;60.20;;;;;;5039649;28;20382;-55
2022/01/08 09:41:51;;;;;;;7.22;4.70;;;2.90;60.20;;;;;;5068284;28;20021;-56
2022/01/08 09:44:16;;;;;;;8.80;4.78;;;2.90;60.10;;;;;;5055148;28;20043;-57
2022/01/08 09:46:42;;;;;;;9.60;4.75;;;3.00;59.80;;;;;;5055825;28;20400;-55
2022/01/08 09:49:09;;;;;;;8.00;4.50;;;3.00;59.90;;;;;;5061932;28;20029;-54
2022/01/08 09:51:35;;;;;;;8.57;5.10;;;3.00;59.80;;;;;;5056745;28;20060;-55
2022/01/08 09:54:02;;;;;;;5.22;4.07;;;3.10;59.60;;;;;;5035861;28;20493;-55
2022/01/08 09:56:31;;;;;;;7.65;5.20;;;3.10;59.40;;;;;;5058953;28;20107;-57
2022/01/08 09:58:56;;;;;;;8.95;6.20;;;3.20;59.10;;;;;;5069261;28;20422;-57
2022/01/08 10:01:32;;;;;;;10.70;6.75;;;3.20;58.70;;;;;;5057525;28;20026;-54
2022/01/08 10:04:00;;;;;;;13.20;9.65;;;3.20;58.70;;;;;;5051747;28;20028;-56
2022/01/08 10:06:28;;;;;;;13.20;10.10;;;3.20;58.10;;;;;;5059448;28;20025;-55
2022/01/08 10:08:54;;;;;;;14.05;10.60;;;3.20;57.80;;;;;;5048952;28;20495;-55
2022/01/08 10:11:22;;;;;;;17.58;12.52;;;3.30;57.60;;;;;;5060346;28;20071;-55
2022/01/08 10:13:52;;;;;;;18.20;12.48;;;3.30;57.10;;;;;;5059738;28;20020;-54
2022/01/08 10:19:15;;;;;;;13.98;9.65;;;3.40;56.80;;;;;;5040181;28;20074;-55
2022/01/08 10:21:44;;;;;;;16.45;12.57;;;3.40;56.30;;;;;;5050013;28;20090;-56
2022/01/08 10:24:10;;;;;;;17.02;11.40;;;3.30;56.50;;;;;;5051436;28;20025;-55
2022/01/08 10:26:38;;;;;;;17.95;12.45;;;3.40;56.30;;;;;;5058619;28;20044;-56
2022/01/08 10:29:06;;;;;;;17.27;11.68;;;3.30;56.60;;;;;;5058036;28;20483;-54
2022/01/08 10:31:32;;;;;;;16.48;12.77;;;3.30;56.80;;;;;;5053834;28;20017;-54
2022/01/08 10:34:01;;;;;;;15.00;12.05;;;3.40;56.80;;;;;;5051722;28;20025;-56
2022/01/08 10:36:54;;;;;;;17.08;12.68;;;3.50;56.80;;;;;;5060583;28;20032;-55
2022/01/08 10:39:25;;;;;;;18.02;12.45;;;3.60;56.60;;;;;;5053335;28;20036;-53
2022/01/08 10:41:52;;;;;;;21.50;12.43;;;3.60;56.50;;;;;;5044579;28;20320;-56
2022/01/08 10:44:27;;;;;;;15.82;12.23;;;3.70;56.30;;;;;;5042373;28;20377;-55
2022/01/08 10:47:05;;;;;;;16.77;12.02;;;3.70;56.00;;;;;;5040223;28;20036;-56
2022/01/08 10:49:38;;;;;;;16.30;11.45;;;3.80;55.60;;;;;;5066533;28;20103;-56
2022/01/08 10:52:09;;;;;;;15.70;11.60;;;3.70;55.40;;;;;;5058415;28;20465;-55
2022/01/08 10:54:39;;;;;;;18.42;12.70;;;3.70;55.10;;;;;;5061079;28;20020;-57
2022/01/08 10:57:07;;;;;;;12.90;11.00;;;3.60;55.00;;;;;;5048288;28;20029;-56
2022/01/08 10:59:35;;;;;;;15.70;11.45;;;3.50;55.30;;;;;;5041300;28;20265;-56
2022/01/08 11:02:19;;;;;;;19.35;13.27;;;3.50;55.30;;;;;;5034978;28;20033;-56
2022/01/08 11:04:52;;;;;;;14.77;10.30;;;3.40;55.20;;;;;;5038902;28;20134;-52
2022/01/08 11:07:20;;;;;;;14.48;10.07;;;3.40;55.40;;;;;;5067905;28;20375;-56
2022/01/08 11:09:48;;;;;;;14.88;9.88;;;3.30;55.50;;;;;;5053394;28;20167;-55
2022/01/08 11:12:29;;;;;;;13.98;9.20;;;3.30;55.70;;;;;;5062391;28;20095;-57
2022/01/08 11:15:12;;;;;;;15.75;10.38;;;3.30;55.60;;;;;;5053929;28;20029;-56
2022/01/08 11:17:47;;;;;;;14.32;10.20;;;3.30;55.50;;;;;;5053752;28;20021;-57
2022/01/08 11:20:16;;;;;;;18.42;11.15;;;3.30;55.70;;;;;;5055081;28;20380;-55
2022/01/08 11:22:44;;;;;;;13.07;9.68;;;3.30;55.80;;;;;;5050456;28;20062;-57
2022/01/08 11:25:13;;;;;;;14.43;10.50;;;3.40;55.80;;;;;;5054354;28;20029;-55
2022/01/08 11:27:57;;;;;;;12.43;9.65;;;3.50;55.70;;;;;;5041538;28;20028;-54
2022/01/08 11:30:31;;;;;;;13.77;10.20;;;3.50;55.30;;;;;;5053245;28;20413;-56
2022/01/08 11:33:01;;;;;;;13.27;10.43;;;3.50;55.50;;;;;;5044179;28;20111;-56
2022/01/08 11:35:30;;;;;;;16.02;11.18;;;3.50;55.80;;;;;;5049520;28;20033;-57
2022/01/08 11:37:56;;;;;;;14.38;10.48;;;3.50;55.70;;;;;;5059453;28;20028;-56
2022/01/08 11:40:25;;;;;;;12.00;9.35;;;3.50;55.70;;;;;;5055959;28;20024;-57
2022/01/08 11:42:52;;;;;;;12.27;8.43;;;3.60;55.50;;;;;;5039251;28;20040;-53
2022/01/08 11:45:24;;;;;;;14.23;8.85;;;3.60;55.30;;;;;;5047099;28;20107;-56
2022/01/08 11:47:53;;;;;;;16.75;9.38;;;3.60;55.30;;;;;;5047498;28;20025;-56
2022/01/08 11:50:24;;;;;;;12.38;8.90;;;3.50;55.30;;;;;;5054576;28;20044;-56
2022/01/08 11:53:19;;;;;;;9.88;7.97;;;3.60;55.50;;;;;;5041894;28;20029;-54
2022/01/08 11:55:52;;;;;;;14.20;9.52;;;3.60;55.40;;;;;;5047492;28;20025;-53
2022/01/08 11:58:26;;;;;;;13.50;9.70;;;3.50;55.50;;;;;;5048328;28;20393;-56
2022/01/08 12:01:06;;;;;;;16.73;10.27;;;3.50;55.60;;;;;;5048590;28;20030;-57
2022/01/08 12:03:38;;;;;;;14.18;9.82;;;3.50;55.50;;;;;;5050490;28;20035;-55
2022/01/08 12:08:47;;;;;;;15.93;11.15;;;3.60;55.60;;;;;;5049907;28;20052;-55
2022/01/08 12:11:13;;;;;;;15.32;10.25;;;3.60;55.60;;;;;;5045497;28;20063;-55
2022/01/08 12:13:46;;;;;;;13.00;10.30;;;3.70;55.70;;;;;;5057469;28;20017;-56
2022/01/08 12:16:35;;;;;;;12.32;9.00;;;3.70;55.50;;;;;;5053281;28;20029;-52
2022/01/08 12:19:10;;;;;;;16.45;9.43;;;3.70;55.30;;;;;;5052626;28;20417;-55
2022/01/08 12:21:38;;;;;;;15.90;10.18;;;3.70;55.40;;;;;;5063366;28;20036;-55
2022/01/08 12:24:32;;;;;;;14.38;10.20;;;3.80;55.50;;;;;;5056536;28;20025;-56
2022/01/08 12:27:01;;;;;;;13.95;10.50;;;3.80;55.50;;;;;;5060781;28;20430;-56
2022/01/08 12:29:33;;;;;;;17.20;10.90;;;3.80;55.50;;;;;;5052941;28;20021;-56
2022/01/08 12:32:17;;;;;;;;;;;3.80;55.50;;;;;;5058088;28;20043;-55
2022/01/08 12:34:48;;;;;;;15.85;9.30;;;3.80;55.50;;;;;;5070066;28;19904;-56
2022/01/08 12:37:15;;;;;;;14.13;8.27;;;3.80;55.40;;;;;;5064556;28;20021;-56
2022/01/08 12:39:43;;;;;;;17.55;9.90;;;3.70;55.40;;;;;;5060921;28;20021;-52
2022/01/08 12:42:24;;;;;;;17.45;10.95;;;3.70;55.30;;;;;;5060251;28;20112;-56
2022/01/08 12:45:01;;;;;;;13.20;8.20;;;3.70;55.50;;;;;;5052579;28;20030;-55
2022/01/08 12:47:57;;;;;;;14.00;9.82;;;3.60;55.50;;;;;;5067950;28;20357;-56
2022/01/08 12:50:37;;;;;;;14.88;10.43;;;3.60;55.40;;;;;;5042960;28;20377;-54
2022/01/08 12:53:09;;;;;;;15.73;9.57;;;3.50;55.60;;;;;;5053940;28;20087;-53
2022/01/08 12:55:40;;;;;;;13.48;9.30;;;3.50;55.70;;;;;;5043411;28;20052;-53
2022/01/08 12:58:29;;;;;;;12.32;8.70;;;3.50;55.80;;;;;;5049064;28;20071;-56
2022/01/08 13:00:59;;;;;;;13.27;8.55;;;3.60;55.80;;;;;;5048483;28;20041;-56
2022/01/08 13:03:31;;;;;;;11.75;8.07;;;3.60;55.90;;;;;;5038986;28;20095;-56
2022/01/08 13:05:59;;;;;;;12.23;8.73;;;3.60;55.70;;;;;;5056522;28;20448;-56
2022/01/08 13:08:27;;;;;;;18.65;11.25;;;3.50;55.60;;;;;;5049281;28;20037;-53
2022/01/08 13:10:59;;;;;;;17.42;11.15;;;3.50;55.80;;;;;;5030730;28;20032;-55
2022/01/08 13:13:26;;;;;;;15.75;11.05;;;3.40;55.80;;;;;;5050500;28;20064;-56
2022/01/08 13:15:53;;;;;;;13.60;9.88;;;3.40;55.90;;;;;;5053532;28;20031;-56
2022/01/08 13:18:24;;;;;;;15.48;9.70;;;3.30;55.90;;;;;;5050209;28;20123;-56